Time;durP1;ratioP1;P1;durP2;ratioP2;P2;SDS_P1;SDS_P2;PMS_P1;PMS_P2;Temp;Humidity;BMP_temperature;BMP_pressure;BME280_temperature;BME280_humidity;BME280_pressure;Samples;Min_cycle;Max_cycle;Signal;HPM_P1;HPM_P2
2022/12/09 00:01:09;;;;;;;34.83;32.33;;;;;;;-141.22;100.00;65034.22;5032738;28;20488;-47
2022/12/09 00:03:37;;;;;;;35.63;33.17;;;;;;;-141.22;100.00;65034.22;5031837;28;20464;-46
2022/12/09 00:06:07;;;;;;;36.73;33.93;;;;;;;-141.22;100.00;65034.22;5032647;28;20490;-50
2022/12/09 00:08:35;;;;;;;35.43;32.83;;;;;;;-141.22;100.00;65034.22;5032631;28;20454;-46
2022/12/09 00:11:03;;;;;;;37.40;34.70;;;;;;;-141.22;100.00;65034.22;5032506;28;20479;-53
2022/12/09 00:13:31;;;;;;;35.93;33.63;;;;;;;-141.22;100.00;65034.22;5031588;28;20468;-48
2022/12/09 00:16:04;;;;;;;35.60;33.20;;;;;;;-141.22;100.00;65034.22;5032375;28;20922;-50
2022/12/09 00:18:32;;;;;;;36.57;33.93;;;;;;;-141.22;100.00;65034.22;5032487;28;20443;-52
2022/12/09 00:21:11;;;;;;;35.57;32.97;;;;;;;-141.22;100.00;65034.22;5032252;28;20948;-50
2022/12/09 00:23:39;;;;;;;37.57;34.73;;;;;;;-141.22;100.00;65034.22;5031651;28;20491;-50
2022/12/09 00:26:07;;;;;;;36.53;34.03;;;;;;;-141.22;100.00;65034.22;5032248;28;20432;-49
2022/12/09 00:28:34;;;;;;;37.00;34.30;;;;;;;-141.22;100.00;65034.22;5032087;28;20436;-50
2022/12/09 00:31:04;;;;;;;35.57;33.10;;;;;;;-141.22;100.00;65034.22;5031242;28;20483;-49
2022/12/09 00:33:34;;;;;;;36.07;33.50;;;;;;;-141.22;100.00;65034.22;5031444;28;20468;-48
2022/12/09 00:36:07;;;;;;;36.13;33.53;;;;;;;-141.22;100.00;65034.22;5032489;28;20432;-48
2022/12/09 00:38:35;;;;;;;36.00;33.40;;;;;;;-141.22;100.00;65034.22;5031918;28;20984;-48
2022/12/09 00:41:04;;;;;;;38.27;34.90;;;;;;;-141.22;100.00;65034.22;5032184;28;20937;-49
2022/12/09 00:43:32;;;;;;;36.23;33.73;;;;;;;-141.22;100.00;65034.22;5030429;28;20487;-50
2022/12/09 00:46:00;;;;;;;37.97;35.17;;;;;;;-141.22;100.00;65034.22;5031209;28;20444;-49
2022/12/09 00:48:29;;;;;;;35.50;33.10;;;;;;;-141.22;100.00;65034.22;5032513;28;20997;-48
2022/12/09 00:50:57;;;;;;;36.07;33.47;;;;;;;-141.22;100.00;65034.22;5032318;28;20436;-47
2022/12/09 00:53:25;;;;;;;34.40;32.10;;;;;;;-141.22;100.00;65034.22;5031285;28;20499;-49
2022/12/09 00:55:53;;;;;;;35.70;33.20;;;;;;;-141.22;100.00;65034.22;5029122;28;20435;-49
2022/12/09 00:58:21;;;;;;;36.03;33.60;;;;;;;-141.22;100.00;65034.22;5012042;28;20437;-49
2022/12/09 01:00:48;;;;;;;35.10;32.67;;;;;;;-141.22;100.00;65034.22;5012418;28;20798;-46
2022/12/09 01:03:17;;;;;;;35.47;32.87;;;;;;;-141.22;100.00;65034.22;5010226;28;20468;-49
2022/12/09 01:05:47;;;;;;;34.73;32.20;;;;;;;-141.22;100.00;65034.22;5010851;28;20939;-48
2022/12/09 01:08:15;;;;;;;35.47;33.17;;;;;;;-141.22;100.00;65034.22;5012174;28;20437;-51
2022/12/09 01:10:44;;;;;;;37.00;34.00;;;;;;;-141.22;100.00;65034.22;5011903;28;20433;-49
2022/12/09 01:13:14;;;;;;;34.83;32.50;;;;;;;-141.22;100.00;65034.22;5011291;28;20461;-46
2022/12/09 01:15:43;;;;;;;38.10;35.07;;;;;;;-141.22;100.00;65034.22;5012110;28;20438;-50
2022/12/09 01:18:11;;;;;;;38.03;35.17;;;;;;;-141.22;100.00;65034.22;5012073;28;20810;-49
2022/12/09 01:20:39;;;;;;;38.03;35.23;;;;;;;-141.22;100.00;65034.22;5011738;28;20937;-48
2022/12/09 01:23:08;;;;;;;36.70;34.00;;;;;;;-141.22;100.00;65034.22;5011229;28;20473;-48
2022/12/09 01:25:37;;;;;;;38.87;35.67;;;;;;;-141.22;100.00;65034.22;5011742;28;20437;-50
2022/12/09 01:28:05;;;;;;;39.53;36.47;;;;;;;-141.22;100.00;65034.22;5010936;28;20441;-48
2022/12/09 01:30:33;;;;;;;38.00;34.90;;;;;;;-141.22;100.00;65034.22;5011765;28;20519;-49
2022/12/09 01:33:00;;;;;;;39.20;35.87;;;;;;;-141.22;100.00;65034.22;5011074;28;20470;-47
2022/12/09 01:35:28;;;;;;;40.30;37.00;;;;;;;-141.22;100.00;65034.22;5011569;28;20433;-46
2022/12/09 01:37:56;;;;;;;38.23;35.03;;;;;;;-141.22;100.00;65034.22;5011729;28;20437;-47
2022/12/09 01:40:25;;;;;;;37.77;34.77;;;;;;;-141.22;100.00;65034.22;5011545;28;20443;-47
2022/12/09 01:42:53;;;;;;;37.33;34.30;;;;;;;-141.22;100.00;65034.22;5010634;28;20548;-48
2022/12/09 01:45:48;;;;;;;38.07;35.03;;;;;;;-141.22;100.00;65034.22;5014979;28;20467;-47
2022/12/09 01:48:19;;;;;;;38.93;35.83;;;;;;;-141.22;100.00;65034.22;5015253;28;21001;-48
2022/12/09 01:50:51;;;;;;;37.57;34.57;;;;;;;-141.22;100.00;65034.22;5015464;28;20429;-52
2022/12/09 01:53:21;;;;;;;39.00;35.90;;;;;;;-141.22;100.00;65034.22;5014430;28;20476;-47
2022/12/09 01:55:50;;;;;;;38.93;35.50;;;;;;;-141.22;100.00;65034.22;5021563;28;20420;-46
2022/12/09 01:58:18;;;;;;;37.30;34.00;;;;;;;-141.22;100.00;65034.22;5026969;28;20429;-47
2022/12/09 02:00:47;;;;;;;38.63;35.40;;;;;;;-141.22;100.00;65034.22;5034963;28;20505;-49
2022/12/09 02:03:14;;;;;;;38.73;35.37;;;;;;;-141.22;100.00;65034.22;5034379;28;20474;-50
2022/12/09 02:05:43;;;;;;;42.30;38.70;;;;;;;-141.22;100.00;65034.22;5035143;28;20432;-49
2022/12/09 02:08:13;;;;;;;40.70;36.77;;;;;;;-141.22;100.00;65034.22;5034892;28;20444;-52
2022/12/09 02:10:48;;;;;;;45.07;40.00;;;;;;;-141.22;100.00;65034.22;5034775;28;20435;-53
2022/12/09 02:13:26;;;;;;;44.73;40.17;;;;;;;-141.22;100.00;65034.22;5034066;28;21011;-49
2022/12/09 02:15:57;;;;;;;44.63;40.40;;;;;;;-141.22;100.00;65034.22;5034910;28;20481;-48
2022/12/09 02:18:29;;;;;;;46.07;41.57;;;;;;;-141.22;100.00;65034.22;5034666;28;20447;-48
2022/12/09 02:21:01;;;;;;;43.87;39.90;;;;;;;-141.22;100.00;65034.22;5034751;28;20424;-48
2022/12/09 02:23:37;;;;;;;44.67;40.20;;;;;;;-141.22;100.00;65034.22;5033785;28;20483;-48
2022/12/09 02:26:13;;;;;;;42.33;38.40;;;;;;;-141.22;100.00;65034.22;5034628;28;20450;-49
2022/12/09 02:29:11;;;;;;;48.10;40.33;;;;;;;-141.22;100.00;65034.22;5034653;28;20439;-49
2022/12/09 02:32:18;;;;;;;44.43;39.73;;;;;;;-141.22;100.00;65034.22;5033769;28;20440;-51
2022/12/09 02:34:54;;;;;;;45.87;41.03;;;;;;;-141.22;100.00;65034.22;5011555;28;20456;-51
2022/12/09 02:37:29;;;;;;;48.07;42.87;;;;;;;-141.22;100.00;65034.22;5034635;28;20463;-52
2022/12/09 02:40:01;;;;;;;50.23;42.03;;;;;;;-141.22;100.00;65034.22;5033261;28;20442;-49
2022/12/09 02:42:34;;;;;;;54.10;44.50;;;;;;;-141.22;100.00;65034.22;5031450;28;20883;-51
2022/12/09 02:45:04;;;;;;;62.10;46.07;;;;;;;-141.22;100.00;65034.22;5032993;28;20964;-50
2022/12/09 02:47:36;;;;;;;51.50;43.07;;;;;;;-141.22;100.00;65034.22;5034627;28;20526;-50
2022/12/09 02:50:09;;;;;;;61.00;46.40;;;;;;;-141.22;100.00;65034.22;5034291;28;20451;-53
2022/12/09 02:52:39;;;;;;;52.90;43.60;;;;;;;-141.22;100.00;65034.22;5033582;28;20475;-49
2022/12/09 02:55:10;;;;;;;50.63;41.80;;;;;;;-141.22;100.00;65034.22;5032256;28;20440;-51
2022/12/09 02:57:38;;;;;;;49.83;41.60;;;;;;;-141.22;100.00;65034.22;5026094;28;20439;-50
2022/12/09 03:00:08;;;;;;;43.93;39.50;;;;;;;-141.22;100.00;65034.22;5033701;28;20440;-50
2022/12/09 03:02:40;;;;;;;43.63;38.80;;;;;;;-141.22;100.00;65034.22;5033837;28;20468;-52
2022/12/09 03:05:16;;;;;;;45.23;40.23;;;;;;;-141.22;100.00;65034.22;5033870;28;20948;-50
2022/12/09 03:07:54;;;;;;;48.27;41.50;;;;;;;-141.22;100.00;65034.22;5033911;28;20441;-52
2022/12/09 03:10:27;;;;;;;78.07;43.97;;;;;;;-141.22;100.00;65034.22;5033884;28;20436;-53
2022/12/09 03:13:00;;;;;;;53.73;43.90;;;;;;;-141.22;100.00;65034.22;5032978;28;21067;-51
2022/12/09 03:15:32;;;;;;;50.07;41.40;;;;;;;-141.22;100.00;65034.22;5029728;28;20428;-52
2022/12/09 03:18:04;;;;;;;60.03;43.90;;;;;;;-141.22;100.00;65034.22;5021698;28;20487;-49
2022/12/09 03:20:39;;;;;;;51.60;39.50;;;;;;;-141.22;100.00;65034.22;5033738;28;20483;-51
2022/12/09 03:23:11;;;;;;;44.37;39.47;;;;;;;-141.22;100.00;65034.22;5032888;28;20529;-48
2022/12/09 03:25:42;;;;;;;43.53;39.27;;;;;;;-141.22;100.00;65034.22;5033581;28;20510;-52
2022/12/09 03:28:16;;;;;;;44.27;39.50;;;;;;;-141.22;100.00;65034.22;5032621;28;20436;-50
2022/12/09 03:30:45;;;;;;;50.03;39.60;;;;;;;-141.22;100.00;65034.22;5033527;28;20808;-49
2022/12/09 03:33:18;;;;;;;42.23;38.00;;;;;;;-141.22;100.00;65034.22;5032365;28;21020;-47
2022/12/09 03:35:51;;;;;;;44.37;39.97;;;;;;;-141.22;100.00;65034.22;5033358;28;20428;-47
2022/12/09 03:38:22;;;;;;;44.13;39.60;;;;;;;-141.22;100.00;65034.22;5033160;28;20444;-47
2022/12/09 03:40:58;;;;;;;53.93;42.40;;;;;;;-141.22;100.00;65034.22;5033308;28;20855;-49
2022/12/09 03:43:29;;;;;;;56.43;42.63;;;;;;;-141.22;100.00;65034.22;5031466;28;20981;-53
2022/12/09 03:45:57;;;;;;;49.73;40.43;;;;;;;-141.22;100.00;65034.22;5033574;28;20463;-47
2022/12/09 03:48:26;;;;;;;51.03;41.67;;;;;;;-141.22;100.00;65034.22;5033571;28;20433;-53
2022/12/09 03:50:59;;;;;;;54.30;41.43;;;;;;;-141.22;100.00;65034.22;5033404;28;20446;-49
2022/12/09 03:53:34;;;;;;;52.47;42.93;;;;;;;-141.22;100.00;65034.22;5032309;28;20487;-50
2022/12/09 03:56:07;;;;;;;44.30;39.67;;;;;;;-141.22;100.00;65034.22;5029335;28;20436;-49
2022/12/09 03:58:40;;;;;;;44.13;39.43;;;;;;;-141.22;100.00;65034.22;5012645;28;20536;-48
2022/12/09 04:01:09;;;;;;;45.70;40.77;;;;;;;-141.22;100.00;65034.22;5011985;28;20448;-49
2022/12/09 04:03:38;;;;;;;42.10;38.00;;;;;;;-141.22;100.00;65034.22;5010338;28;20465;-48
2022/12/09 04:06:08;;;;;;;43.90;39.50;;;;;;;-141.22;100.00;65034.22;5012668;28;20434;-47
2022/12/09 04:08:36;;;;;;;48.87;42.50;;;;;;;-141.22;100.00;65034.22;5013757;28;20444;-47
2022/12/09 04:11:03;;;;;;;65.33;41.83;;;;;;;-141.22;100.00;65034.22;5013109;28;20453;-49
2022/12/09 04:13:32;;;;;;;61.57;45.70;;;;;;;-141.22;100.00;65034.22;5012367;28;20480;-50
2022/12/09 04:15:59;;;;;;;72.57;48.00;;;;;;;-141.22;100.00;65034.22;5012899;28;20443;-47
2022/12/09 04:18:27;;;;;;;59.07;46.63;;;;;;;-141.22;100.00;65034.22;5012782;28;21172;-53
2022/12/09 04:20:55;;;;;;;58.00;45.70;;;;;;;-141.22;100.00;65034.22;5012487;28;20448;-50
2022/12/09 04:23:24;;;;;;;51.43;45.83;;;;;;;-141.22;100.00;65034.22;5012156;28;20902;-48
2022/12/09 04:25:52;;;;;;;66.50;50.27;;;;;;;-141.22;100.00;65034.22;5012744;28;20949;-48
2022/12/09 04:28:20;;;;;;;63.93;45.67;;;;;;;-141.22;100.00;65034.22;5012825;28;20441;-48
2022/12/09 04:30:48;;;;;;;78.40;51.87;;;;;;;-141.22;100.00;65034.22;5012424;28;20441;-51
2022/12/09 04:33:16;;;;;;;68.80;48.40;;;;;;;-141.22;100.00;65034.22;5012026;28;20946;-50
2022/12/09 04:35:43;;;;;;;62.77;47.40;;;;;;;-141.22;100.00;65034.22;5012714;28;20433;-52
2022/12/09 04:38:11;;;;;;;55.67;44.93;;;;;;;-141.22;100.00;65034.22;5012566;28;20524;-50
2022/12/09 04:40:40;;;;;;;52.60;46.83;;;;;;;-141.22;100.00;65034.22;5012454;28;20433;-48
2022/12/09 04:43:08;;;;;;;59.50;46.30;;;;;;;-141.22;100.00;65034.22;5011670;28;20465;-48
2022/12/09 04:45:37;;;;;;;55.80;44.53;;;;;;;-141.22;100.00;65034.22;5012175;28;20437;-51
2022/12/09 04:48:05;;;;;;;59.27;47.03;;;;;;;-141.22;100.00;65034.22;5012102;28;20440;-52
2022/12/09 04:50:33;;;;;;;55.53;42.90;;;;;;;-141.22;100.00;65034.22;5011158;28;20798;-50
2022/12/09 04:53:01;;;;;;;48.93;43.63;;;;;;;-141.22;100.00;65034.22;5010285;28;20473;-50
2022/12/09 04:55:28;;;;;;;62.37;44.70;;;;;;;-141.22;100.00;65034.22;5015692;28;20432;-51
2022/12/09 04:57:58;;;;;;;54.27;44.53;;;;;;;-141.22;100.00;65034.22;5023782;28;20432;-53
2022/12/09 05:00:26;;;;;;;68.57;47.97;;;;;;;-141.22;100.00;65034.22;5031980;28;20482;-52
2022/12/09 05:02:54;;;;;;;54.53;46.10;;;;;;;-141.22;100.00;65034.22;5031209;28;20468;-49
2022/12/09 05:05:22;;;;;;;59.73;47.70;;;;;;;-141.22;100.00;65034.22;5032111;28;20527;-50
2022/12/09 05:07:50;;;;;;;57.83;45.63;;;;;;;-141.22;100.00;65034.22;5032378;28;20590;-47
2022/12/09 05:10:19;;;;;;;61.23;45.17;;;;;;;-141.22;100.00;65034.22;5031945;28;20850;-50
2022/12/09 05:12:47;;;;;;;54.80;44.60;;;;;;;-141.22;100.00;65034.22;5031612;28;20526;-50
2022/12/09 05:15:16;;;;;;;61.30;44.83;;;;;;;-141.22;100.00;65034.22;5032103;28;20483;-50
2022/12/09 05:17:44;;;;;;;49.00;43.70;;;;;;;-141.22;100.00;65034.22;5032217;28;20443;-53
2022/12/09 05:20:13;;;;;;;51.63;45.40;;;;;;;-141.22;100.00;65034.22;5035912;28;20432;-47
2022/12/09 05:22:41;;;;;;;49.40;42.77;;;;;;;-141.22;100.00;65034.22;5035470;28;20472;-49
2022/12/09 05:25:09;;;;;;;47.20;41.80;;;;;;;-141.22;100.00;65034.22;5035745;28;20438;-51
2022/12/09 05:27:37;;;;;;;48.57;43.30;;;;;;;-141.22;100.00;65034.22;5035887;28;20441;-46
2022/12/09 05:30:07;;;;;;;45.73;41.43;;;;;;;-141.22;100.00;65034.22;5035509;28;20431;-46
2022/12/09 05:32:36;;;;;;;50.23;42.33;;;;;;;-141.22;100.00;65034.22;5035082;28;20463;-49
2022/12/09 05:35:05;;;;;;;52.67;45.00;;;;;;;-141.22;100.00;65034.22;5035103;28;20541;-46
2022/12/09 05:37:33;;;;;;;51.30;46.13;;;;;;;-141.22;100.00;65034.22;5035405;28;20465;-46
2022/12/09 05:40:01;;;;;;;51.07;44.93;;;;;;;-141.22;100.00;65034.22;5035531;28;21032;-48
2022/12/09 05:42:29;;;;;;;54.07;44.10;;;;;;;-141.22;100.00;65034.22;5034721;28;21237;-47
2022/12/09 05:45:01;;;;;;;51.27;45.97;;;;;;;-141.22;100.00;65034.22;5034939;28;20474;-46
2022/12/09 05:47:29;;;;;;;47.77;42.83;;;;;;;-141.22;100.00;65034.22;5035221;28;20439;-45
2022/12/09 05:49:59;;;;;;;50.07;43.80;;;;;;;-141.22;100.00;65034.22;5035075;28;20845;-48
2022/12/09 05:52:35;;;;;;;47.13;42.30;;;;;;;-141.22;100.00;65034.22;5034554;28;20467;-49
2022/12/09 05:55:04;;;;;;;48.37;42.90;;;;;;;-141.22;100.00;65034.22;5032952;28;20472;-48
2022/12/09 05:57:34;;;;;;;51.07;44.53;;;;;;;-141.22;100.00;65034.22;5026831;28;20866;-48
2022/12/09 06:00:04;;;;;;;49.90;44.50;;;;;;;-141.22;100.00;65034.22;5034989;28;20514;-47
2022/12/09 06:02:33;;;;;;;46.77;42.03;;;;;;;-141.22;100.00;65034.22;5034384;28;20868;-46
2022/12/09 06:05:03;;;;;;;46.47;41.90;;;;;;;-141.22;100.00;65034.22;5034718;28;20428;-48
2022/12/09 06:07:31;;;;;;;48.43;43.40;;;;;;;-141.22;100.00;65034.22;5034872;28;20436;-45
2022/12/09 06:09:59;;;;;;;45.80;40.93;;;;;;;-141.22;100.00;65034.22;5034763;28;20427;-47
2022/12/09 06:12:28;;;;;;;46.10;41.80;;;;;;;-141.22;100.00;65034.22;5034197;28;20491;-46
2022/12/09 06:14:55;;;;;;;47.87;43.07;;;;;;;-141.22;100.00;65034.22;5034336;28;20512;-48
2022/12/09 06:17:23;;;;;;;44.77;40.07;;;;;;;-141.22;100.00;65034.22;5034866;28;20510;-46
2022/12/09 06:19:51;;;;;;;43.27;38.90;;;;;;;-141.22;100.00;65034.22;5034637;28;20535;-48
2022/12/09 06:22:20;;;;;;;46.03;41.73;;;;;;;-141.22;100.00;65034.22;5033921;28;20984;-49
2022/12/09 06:24:48;;;;;;;48.67;42.23;;;;;;;-141.22;100.00;65034.22;5034215;28;20452;-46
2022/12/09 06:27:23;;;;;;;45.60;41.17;;;;;;;-141.22;100.00;65034.22;5034414;28;20475;-48
2022/12/09 06:29:51;;;;;;;45.77;41.27;;;;;;;-141.22;100.00;65034.22;5033907;28;20509;-48
2022/12/09 06:32:18;;;;;;;47.37;42.50;;;;;;;-141.22;100.00;65034.22;5033955;28;20499;-46
2022/12/09 06:34:46;;;;;;;46.37;41.77;;;;;;;-141.22;100.00;65034.22;5034118;28;20506;-48
2022/12/09 06:37:15;;;;;;;47.37;42.30;;;;;;;-141.22;100.00;65034.22;5034210;28;20474;-46
2022/12/09 06:39:44;;;;;;;50.10;45.03;;;;;;;-141.22;100.00;65034.22;5034223;28;20936;-46
2022/12/09 06:42:12;;;;;;;46.47;42.03;;;;;;;-141.22;100.00;65034.22;5033529;28;20467;-46
2022/12/09 06:44:40;;;;;;;44.63;40.23;;;;;;;-141.22;100.00;65034.22;5033973;28;20448;-48
2022/12/09 06:47:08;;;;;;;47.57;42.67;;;;;;;-141.22;100.00;65034.22;5034128;28;20814;-46
2022/12/09 06:49:36;;;;;;;48.27;43.37;;;;;;;-141.22;100.00;65034.22;5034118;28;20440;-47
2022/12/09 06:52:04;;;;;;;45.97;41.60;;;;;;;-141.22;100.00;65034.22;5033449;28;20810;-48
2022/12/09 06:54:32;;;;;;;44.67;40.40;;;;;;;-141.22;100.00;65034.22;5033309;28;20568;-46
2022/12/09 06:57:01;;;;;;;45.70;41.40;;;;;;;-141.22;100.00;65034.22;5023610;28;20495;-47
2022/12/09 06:59:29;;;;;;;46.47;41.93;;;;;;;-141.22;100.00;65034.22;5034007;28;20797;-50
2022/12/09 07:01:57;;;;;;;47.00;42.50;;;;;;;-141.22;100.00;65034.22;5033318;28;20482;-48
2022/12/09 07:04:25;;;;;;;44.57;40.27;;;;;;;-141.22;100.00;65034.22;5033594;28;20451;-47
2022/12/09 07:06:53;;;;;;;43.97;40.03;;;;;;;-141.22;100.00;65034.22;5033800;28;20436;-49
2022/12/09 07:09:22;;;;;;;45.30;41.17;;;;;;;-141.22;100.00;65034.22;5033953;28;21099;-47
2022/12/09 07:11:50;;;;;;;46.13;41.90;;;;;;;-141.22;100.00;65034.22;5033300;28;20456;-50
2022/12/09 07:14:20;;;;;;;44.73;40.67;;;;;;;-141.22;100.00;65034.22;5033203;28;20475;-46
2022/12/09 07:16:48;;;;;;;45.97;41.77;;;;;;;-141.22;100.00;65034.22;5033555;28;20432;-47
2022/12/09 07:19:17;;;;;;;45.13;41.17;;;;;;;-141.22;100.00;65034.22;5033713;28;20460;-51
2022/12/09 07:21:46;;;;;;;46.03;41.60;;;;;;;-141.22;100.00;65034.22;5032858;28;20507;-48
2022/12/09 07:24:14;;;;;;;42.30;38.70;;;;;;;-141.22;100.00;65034.22;5033078;28;20587;-49
2022/12/09 07:26:42;;;;;;;44.67;40.47;;;;;;;-141.22;100.00;65034.22;5033344;28;20482;-48
2022/12/09 07:29:10;;;;;;;45.77;41.07;;;;;;;-141.22;100.00;65034.22;5033244;28;20880;-49
2022/12/09 07:31:39;;;;;;;46.10;41.60;;;;;;;-141.22;100.00;65034.22;5032793;28;20432;-46
2022/12/09 07:34:07;;;;;;;45.43;40.73;;;;;;;-141.22;100.00;65034.22;5032680;28;20514;-49
2022/12/09 07:36:36;;;;;;;42.40;38.40;;;;;;;-141.22;100.00;65034.22;5033166;28;20436;-48
2022/12/09 07:39:06;;;;;;;42.93;39.40;;;;;;;-141.22;100.00;65034.22;5033358;28;20567;-46
2022/12/09 07:41:34;;;;;;;44.00;40.10;;;;;;;-141.22;100.00;65034.22;5031559;28;20428;-48
2022/12/09 07:44:02;;;;;;;44.47;40.40;;;;;;;-141.22;100.00;65034.22;5032764;28;20456;-51
2022/12/09 07:46:30;;;;;;;44.10;40.03;;;;;;;-141.22;100.00;65034.22;5032841;28;21004;-46
2022/12/09 07:49:01;;;;;;;44.83;40.87;;;;;;;-141.22;100.00;65034.22;5033115;28;20436;-50
2022/12/09 07:51:30;;;;;;;43.77;39.80;;;;;;;-141.22;100.00;65034.22;5032789;28;20432;-51
2022/12/09 07:53:58;;;;;;;43.70;39.80;;;;;;;-141.22;100.00;65034.22;5033138;28;20460;-47
2022/12/09 07:56:27;;;;;;;44.60;40.50;;;;;;;-141.22;100.00;65034.22;5025567;28;20531;-50
2022/12/09 07:58:56;;;;;;;44.50;40.83;;;;;;;-141.22;100.00;65034.22;5030356;28;20490;-48
2022/12/09 08:01:26;;;;;;;43.40;39.70;;;;;;;-141.22;100.00;65034.22;5033034;28;20539;-47
2022/12/09 08:03:56;;;;;;;42.37;38.77;;;;;;;-141.22;100.00;65034.22;5032318;28;20879;-48
2022/12/09 08:06:28;;;;;;;43.33;39.37;;;;;;;-141.22;100.00;65034.22;5032738;28;21034;-48
2022/12/09 08:08:57;;;;;;;43.40;39.70;;;;;;;-141.22;100.00;65034.22;5032581;28;20425;-46
2022/12/09 08:11:28;;;;;;;44.43;40.53;;;;;;;-141.22;100.00;65034.22;5032711;28;20794;-48
2022/12/09 08:13:57;;;;;;;40.53;37.37;;;;;;;-141.22;100.00;65034.22;5031928;28;20464;-47
2022/12/09 08:16:26;;;;;;;42.10;38.60;;;;;;;-141.22;100.00;65034.22;5032313;28;20510;-47
2022/12/09 08:18:55;;;;;;;41.27;37.77;;;;;;;-141.22;100.00;65034.22;5032566;28;20436;-49
2022/12/09 08:21:24;;;;;;;42.40;38.97;;;;;;;-141.22;100.00;65034.22;5032417;28;20502;-47
2022/12/09 08:23:55;;;;;;;40.40;37.20;;;;;;;-141.22;100.00;65034.22;5031816;28;20459;-48
2022/12/09 08:26:25;;;;;;;40.63;37.43;;;;;;;-141.22;100.00;65034.22;5032811;28;20420;-47
2022/12/09 08:28:53;;;;;;;40.17;37.00;;;;;;;-141.22;100.00;65034.22;5032294;28;20933;-46
2022/12/09 08:31:23;;;;;;;41.07;37.77;;;;;;;-141.22;100.00;65034.22;5032151;28;20443;-47
2022/12/09 08:33:53;;;;;;;42.23;38.73;;;;;;;-141.22;100.00;65034.22;5031673;28;20494;-45
2022/12/09 08:36:23;;;;;;;42.73;39.43;;;;;;;-141.22;100.00;65034.22;5031983;28;21000;-46
2022/12/09 08:38:51;;;;;;;41.47;38.23;;;;;;;-141.22;100.00;65034.22;5031976;28;20436;-45
2022/12/09 08:41:33;;;;;;;39.80;36.73;;;;;;;-141.22;100.00;65034.22;5032034;28;20447;-45
2022/12/09 08:44:03;;;;;;;40.27;37.10;;;;;;;-141.22;100.00;65034.22;5031709;28;20793;-46
2022/12/09 08:46:33;;;;;;;42.00;38.70;;;;;;;-141.22;100.00;65034.22;5032089;28;20771;-50
2022/12/09 08:49:01;;;;;;;41.27;37.63;;;;;;;-141.22;100.00;65034.22;5031972;28;20865;-47
2022/12/09 08:51:30;;;;;;;41.10;38.00;;;;;;;-141.22;100.00;65034.22;5031613;28;20471;-45
2022/12/09 08:53:59;;;;;;;40.63;37.50;;;;;;;-141.22;100.00;65034.22;5031405;28;20881;-50
2022/12/09 08:56:28;;;;;;;39.47;36.47;;;;;;;-141.22;100.00;65034.22;5024259;28;20483;-51
2022/12/09 08:58:56;;;;;;;40.27;37.27;;;;;;;-141.22;100.00;65034.22;5029433;28;20428;-45
2022/12/09 09:01:30;;;;;;;41.57;38.37;;;;;;;-141.22;100.00;65034.22;5031947;28;20527;-45
2022/12/09 09:04:00;;;;;;;41.07;37.60;;;;;;;-141.22;100.00;65034.22;5031427;28;20451;-45
2022/12/09 09:06:29;;;;;;;40.97;37.90;;;;;;;-141.22;100.00;65034.22;5031654;28;20428;-45
2022/12/09 09:08:58;;;;;;;40.80;37.30;;;;;;;-141.22;100.00;65034.22;5031604;28;20442;-45
2022/12/09 09:11:28;;;;;;;40.50;37.47;;;;;;;-141.22;100.00;65034.22;5031684;28;20479;-45
2022/12/09 09:13:56;;;;;;;40.40;37.00;;;;;;;-141.22;100.00;65034.22;5030980;28;20448;-46
2022/12/09 09:16:26;;;;;;;40.37;37.30;;;;;;;-141.22;100.00;65034.22;5031981;28;20464;-49
2022/12/09 09:18:54;;;;;;;42.27;39.07;;;;;;;-141.22;100.00;65034.22;5032153;28;20458;-46
2022/12/09 09:21:25;;;;;;;42.30;39.00;;;;;;;-141.22;100.00;65034.22;5025441;28;20495;-51
2022/12/09 09:23:53;;;;;;;42.00;38.47;;;;;;;-141.22;100.00;65034.22;5017479;28;20883;-48
2022/12/09 09:26:24;;;;;;;39.70;36.70;;;;;;;-141.22;100.00;65034.22;5031536;28;20436;-48
2022/12/09 09:28:55;;;;;;;40.73;37.17;;;;;;;-141.22;100.00;65034.22;5031536;28;20460;-46
2022/12/09 09:31:24;;;;;;;41.60;38.20;;;;;;;-141.22;100.00;65034.22;5031693;28;20806;-46
2022/12/09 09:33:53;;;;;;;39.50;36.70;;;;;;;-141.22;100.00;65034.22;5030937;28;20444;-47
2022/12/09 09:36:23;;;;;;;42.03;38.47;;;;;;;-141.22;100.00;65034.22;5031448;28;21031;-47
2022/12/09 09:38:53;;;;;;;41.90;38.70;;;;;;;-141.22;100.00;65034.22;5031471;28;20428;-49
2022/12/09 09:41:28;;;;;;;41.17;37.93;;;;;;;-141.22;100.00;65034.22;5031399;28;20431;-47
2022/12/09 09:43:57;;;;;;;41.67;38.33;;;;;;;-141.22;100.00;65034.22;5030986;28;20526;-47
2022/12/09 09:46:34;;;;;;;40.67;37.67;;;;;;;-141.22;100.00;65034.22;5031288;28;20429;-46
2022/12/09 09:49:05;;;;;;;40.03;37.20;;;;;;;-141.22;100.00;65034.22;5031381;28;20840;-48
2022/12/09 09:51:35;;;;;;;41.17;37.83;;;;;;;-141.22;100.00;65034.22;5030684;28;20444;-50
2022/12/09 09:54:03;;;;;;;39.43;36.73;;;;;;;-141.22;100.00;65034.22;5030833;28;20464;-48
2022/12/09 09:56:42;;;;;;;40.80;37.80;;;;;;;-141.22;100.00;65034.22;5022813;28;20552;-47
2022/12/09 09:59:20;;;;;;;39.80;36.67;;;;;;;-141.22;100.00;65034.22;5031122;28;20432;-50
2022/12/09 10:01:59;;;;;;;38.47;35.43;;;;;;;-141.22;100.00;65034.22;5030756;28;20463;-52
2022/12/09 10:04:36;;;;;;;40.87;37.80;;;;;;;-141.22;100.00;65034.22;5031786;28;20443;-50
2022/12/09 10:07:18;;;;;;;40.43;37.30;;;;;;;-141.22;100.00;65034.22;5058871;22;20492;-43
2022/12/09 10:09:53;;;;;;;40.47;37.17;;;;;;;-141.22;100.00;65034.22;5046469;28;20437;-46
2022/12/09 10:12:30;;;;;;;39.00;36.30;;;;;;;-141.22;100.00;65034.22;5054123;28;21018;-43
2022/12/09 10:15:09;;;;;;;38.00;35.20;;;;;;;-141.22;100.00;65034.22;5054483;28;20526;-46
2022/12/09 10:17:44;;;;;;;39.53;36.47;;;;;;;-141.22;100.00;65034.22;5054546;28;20971;-44
2022/12/09 10:20:15;;;;;;;38.53;35.83;;;;;;;-141.22;100.00;65034.22;5054843;28;20846;-46
2022/12/09 10:22:50;;;;;;;39.90;37.03;;;;;;;-141.22;100.00;65034.22;5054148;28;20471;-49
2022/12/09 10:25:22;;;;;;;39.10;36.20;;;;;;;-141.22;100.00;65034.22;5054388;28;20434;-43
2022/12/09 10:27:56;;;;;;;42.00;38.50;;;;;;;-141.22;100.00;65034.22;5054340;28;20545;-43
2022/12/09 10:30:26;;;;;;;38.93;35.83;;;;;;;-141.22;100.00;65034.22;5054384;28;20940;-46
2022/12/09 10:33:04;;;;;;;40.47;37.17;;;;;;;-141.22;100.00;65034.22;5053867;28;20462;-46
2022/12/09 10:35:33;;;;;;;42.30;39.10;;;;;;;-141.22;100.00;65034.22;5054258;28;20879;-43
2022/12/09 10:38:07;;;;;;;40.23;37.03;;;;;;;-141.22;100.00;65034.22;5054031;28;20512;-43
2022/12/09 10:40:46;;;;;;;41.93;38.47;;;;;;;-141.22;100.00;65034.22;5054040;28;20427;-46
2022/12/09 10:43:34;;;;;;;41.73;38.43;;;;;;;-141.22;100.00;65034.22;5053495;28;20462;-43
2022/12/09 10:46:07;;;;;;;41.07;38.10;;;;;;;-141.22;100.00;65034.22;5054199;28;20428;-43
2022/12/09 10:48:52;;;;;;;43.80;40.40;;;;;;;-141.22;100.00;65034.22;5053942;28;20435;-43
2022/12/09 10:51:22;;;;;;;42.73;39.43;;;;;;;-141.22;100.00;65034.22;5054071;28;20454;-42
2022/12/09 10:53:54;;;;;;;44.80;41.10;;;;;;;-141.22;100.00;65034.22;5053384;28;21008;-48
2022/12/09 10:56:25;;;;;;;44.90;41.47;;;;;;;-141.22;100.00;65034.22;5053792;28;20482;-49
2022/12/09 10:59:09;;;;;;;43.83;40.33;;;;;;;-141.22;100.00;65034.22;5054076;28;20453;-44
2022/12/09 11:01:50;;;;;;;45.57;41.93;;;;;;;-141.22;100.00;65034.22;5053604;28;20419;-47
2022/12/09 11:04:24;;;;;;;45.23;41.63;;;;;;;-141.22;100.00;65034.22;5053709;28;20473;-48
2022/12/09 11:06:54;;;;;;;42.87;39.47;;;;;;;-141.22;100.00;65034.22;5053632;28;20743;-44
2022/12/09 11:09:29;;;;;;;42.37;39.17;;;;;;;-141.22;100.00;65034.22;5053790;28;20519;-47